sensor_id;sensor_type;location;lat;lon;timestamp;P1;durP1;ratioP1;P2;durP2;ratioP2
55617;SDS011;41492;49.804;9.952;2024-03-22T00:00:57;5.10;;;3.53;;
55617;SDS011;41492;49.804;9.952;2024-03-22T00:03:22;3.83;;;3.53;;
55617;SDS011;41492;49.804;9.952;2024-03-22T00:05:49;3.50;;;3.20;;
55617;SDS011;41492;49.804;9.952;2024-03-22T00:08:15;3.42;;;3.13;;
55617;SDS011;41492;49.804;9.952;2024-03-22T00:10:41;3.65;;;3.17;;
55617;SDS011;41492;49.804;9.952;2024-03-22T00:13:07;3.40;;;3.15;;
55617;SDS011;41492;49.804;9.952;2024-03-22T00:15:33;3.47;;;3.17;;
55617;SDS011;41492;49.804;9.952;2024-03-22T00:18:00;3.83;;;3.47;;
55617;SDS011;41492;49.804;9.952;2024-03-22T00:20:27;4.97;;;3.60;;
55617;SDS011;41492;49.804;9.952;2024-03-22T00:22:52;3.78;;;3.40;;
55617;SDS011;41492;49.804;9.952;2024-03-22T00:25:19;3.78;;;3.42;;
55617;SDS011;41492;49.804;9.952;2024-03-22T00:27:44;4.32;;;3.45;;
55617;SDS011;41492;49.804;9.952;2024-03-22T00:30:11;3.80;;;3.47;;
55617;SDS011;41492;49.804;9.952;2024-03-22T00:32:37;4.40;;;3.53;;
55617;SDS011;41492;49.804;9.952;2024-03-22T00:35:05;4.80;;;4.15;;
55617;SDS011;41492;49.804;9.952;2024-03-22T00:37:31;4.47;;;3.65;;
55617;SDS011;41492;49.804;9.952;2024-03-22T00:39:57;3.95;;;3.03;;
55617;SDS011;41492;49.804;9.952;2024-03-22T00:42:23;4.82;;;3.90;;
55617;SDS011;41492;49.804;9.952;2024-03-22T00:44:50;4.00;;;3.60;;
55617;SDS011;41492;49.804;9.952;2024-03-22T00:47:15;4.25;;;3.85;;
55617;SDS011;41492;49.804;9.952;2024-03-22T00:49:42;4.45;;;3.80;;
55617;SDS011;41492;49.804;9.952;2024-03-22T00:52:09;4.07;;;3.75;;
55617;SDS011;41492;49.804;9.952;2024-03-22T00:54:35;3.78;;;3.38;;
55617;SDS011;41492;49.804;9.952;2024-03-22T00:57:04;3.88;;;3.47;;
55617;SDS011;41492;49.804;9.952;2024-03-22T00:59:31;3.60;;;3.28;;
55617;SDS011;41492;49.804;9.952;2024-03-22T01:01:56;4.40;;;3.95;;
55617;SDS011;41492;49.804;9.952;2024-03-22T01:04:23;4.15;;;3.60;;
55617;SDS011;41492;49.804;9.952;2024-03-22T01:06:48;3.47;;;3.17;;
55617;SDS011;41492;49.804;9.952;2024-03-22T01:09:16;4.45;;;3.58;;
55617;SDS011;41492;49.804;9.952;2024-03-22T01:11:42;4.15;;;3.35;;
55617;SDS011;41492;49.804;9.952;2024-03-22T01:14:08;4.20;;;3.80;;
55617;SDS011;41492;49.804;9.952;2024-03-22T01:16:34;3.60;;;3.30;;
55617;SDS011;41492;49.804;9.952;2024-03-22T01:19:00;3.53;;;3.22;;
55617;SDS011;41492;49.804;9.952;2024-03-22T01:21:26;3.58;;;3.28;;
55617;SDS011;41492;49.804;9.952;2024-03-22T01:23:53;4.30;;;3.47;;
55617;SDS011;41492;49.804;9.952;2024-03-22T01:26:20;4.47;;;3.47;;
55617;SDS011;41492;49.804;9.952;2024-03-22T01:28:46;4.43;;;3.88;;
55617;SDS011;41492;49.804;9.952;2024-03-22T01:31:12;3.80;;;3.30;;
55617;SDS011;41492;49.804;9.952;2024-03-22T01:33:39;4.60;;;3.58;;
55617;SDS011;41492;49.804;9.952;2024-03-22T01:36:04;3.75;;;3.45;;
55617;SDS011;41492;49.804;9.952;2024-03-22T01:38:31;4.15;;;3.50;;
55617;SDS011;41492;49.804;9.952;2024-03-22T01:40:57;6.05;;;3.67;;
55617;SDS011;41492;49.804;9.952;2024-03-22T01:43:25;3.47;;;3.17;;
55617;SDS011;41492;49.804;9.952;2024-03-22T01:45:50;3.33;;;3.03;;
55617;SDS011;41492;49.804;9.952;2024-03-22T01:48:17;5.90;;;3.88;;
55617;SDS011;41492;49.804;9.952;2024-03-22T01:50:42;4.57;;;3.70;;
55617;SDS011;41492;49.804;9.952;2024-03-22T01:53:09;5.00;;;3.95;;
55617;SDS011;41492;49.804;9.952;2024-03-22T01:55:35;4.03;;;3.60;;
55617;SDS011;41492;49.804;9.952;2024-03-22T01:58:01;3.65;;;3.13;;
55617;SDS011;41492;49.804;9.952;2024-03-22T02:00:29;4.05;;;3.65;;
55617;SDS011;41492;49.804;9.952;2024-03-22T02:02:56;4.40;;;3.92;;
55617;SDS011;41492;49.804;9.952;2024-03-22T02:05:22;3.70;;;3.30;;
55617;SDS011;41492;49.804;9.952;2024-03-22T02:07:49;4.57;;;3.47;;
55617;SDS011;41492;49.804;9.952;2024-03-22T02:10:15;4.78;;;3.63;;
55617;SDS011;41492;49.804;9.952;2024-03-22T02:12:42;5.55;;;3.83;;
55617;SDS011;41492;49.804;9.952;2024-03-22T02:15:08;4.50;;;4.07;;
55617;SDS011;41492;49.804;9.952;2024-03-22T02:17:36;4.00;;;3.50;;
55617;SDS011;41492;49.804;9.952;2024-03-22T02:20:02;4.35;;;3.95;;
55617;SDS011;41492;49.804;9.952;2024-03-22T02:22:29;4.78;;;3.63;;
55617;SDS011;41492;49.804;9.952;2024-03-22T02:24:56;3.97;;;3.58;;
55617;SDS011;41492;49.804;9.952;2024-03-22T02:27:24;4.20;;;3.78;;
55617;SDS011;41492;49.804;9.952;2024-03-22T02:29:50;4.03;;;3.65;;
55617;SDS011;41492;49.804;9.952;2024-03-22T02:32:16;4.43;;;3.97;;
55617;SDS011;41492;49.804;9.952;2024-03-22T02:34:42;4.30;;;3.50;;
55617;SDS011;41492;49.804;9.952;2024-03-22T02:37:08;6.80;;;3.70;;
55617;SDS011;41492;49.804;9.952;2024-03-22T02:39:34;4.10;;;3.67;;
55617;SDS011;41492;49.804;9.952;2024-03-22T02:42:02;4.05;;;3.63;;
55617;SDS011;41492;49.804;9.952;2024-03-22T02:44:27;4.40;;;3.60;;
55617;SDS011;41492;49.804;9.952;2024-03-22T02:46:54;4.88;;;4.07;;
55617;SDS011;41492;49.804;9.952;2024-03-22T02:49:20;3.92;;;3.42;;
55617;SDS011;41492;49.804;9.952;2024-03-22T02:51:46;7.32;;;3.88;;
55617;SDS011;41492;49.804;9.952;2024-03-22T02:54:12;4.55;;;4.00;;
55617;SDS011;41492;49.804;9.952;2024-03-22T02:56:38;4.32;;;3.70;;
55617;SDS011;41492;49.804;9.952;2024-03-22T02:59:05;3.78;;;2.90;;
55617;SDS011;41492;49.804;9.952;2024-03-22T03:01:32;3.92;;;3.42;;
55617;SDS011;41492;49.804;9.952;2024-03-22T03:03:57;6.32;;;4.30;;
55617;SDS011;41492;49.804;9.952;2024-03-22T03:06:24;4.40;;;3.75;;
55617;SDS011;41492;49.804;9.952;2024-03-22T03:08:50;3.17;;;2.88;;
55617;SDS011;41492;49.804;9.952;2024-03-22T03:11:16;4.28;;;3.88;;
55617;SDS011;41492;49.804;9.952;2024-03-22T03:13:42;4.00;;;3.45;;
55617;SDS011;41492;49.804;9.952;2024-03-22T03:16:10;3.90;;;3.50;;
55617;SDS011;41492;49.804;9.952;2024-03-22T03:18:35;5.28;;;4.03;;
55617;SDS011;41492;49.804;9.952;2024-03-22T03:21:02;4.30;;;3.75;;
55617;SDS011;41492;49.804;9.952;2024-03-22T03:23:27;3.88;;;3.47;;
55617;SDS011;41492;49.804;9.952;2024-03-22T03:25:54;5.35;;;3.63;;
55617;SDS011;41492;49.804;9.952;2024-03-22T03:28:20;3.60;;;3.30;;
55617;SDS011;41492;49.804;9.952;2024-03-22T03:30:46;5.47;;;3.60;;
55617;SDS011;41492;49.804;9.952;2024-03-22T03:33:13;3.92;;;3.60;;
55617;SDS011;41492;49.804;9.952;2024-03-22T03:35:40;5.05;;;3.95;;
55617;SDS011;41492;49.804;9.952;2024-03-22T03:38:06;4.40;;;3.50;;
55617;SDS011;41492;49.804;9.952;2024-03-22T03:40:33;3.90;;;3.60;;
55617;SDS011;41492;49.804;9.952;2024-03-22T03:42:58;3.92;;;3.42;;
55617;SDS011;41492;49.804;9.952;2024-03-22T03:45:25;3.90;;;3.40;;
55617;SDS011;41492;49.804;9.952;2024-03-22T03:47:50;3.53;;;3.22;;
55617;SDS011;41492;49.804;9.952;2024-03-22T03:50:18;5.63;;;4.22;;
55617;SDS011;41492;49.804;9.952;2024-03-22T03:52:44;4.30;;;3.28;;
55617;SDS011;41492;49.804;9.952;2024-03-22T03:55:10;4.07;;;3.58;;
55617;SDS011;41492;49.804;9.952;2024-03-22T03:57:36;3.35;;;3.05;;
55617;SDS011;41492;49.804;9.952;2024-03-22T04:00:03;4.05;;;3.65;;
55617;SDS011;41492;49.804;9.952;2024-03-22T04:02:29;4.15;;;3.67;;
55617;SDS011;41492;49.804;9.952;2024-03-22T04:04:55;4.50;;;3.90;;
55617;SDS011;41492;49.804;9.952;2024-03-22T04:07:22;4.85;;;4.13;;
55617;SDS011;41492;49.804;9.952;2024-03-22T04:09:49;3.85;;;3.22;;
55617;SDS011;41492;49.804;9.952;2024-03-22T04:12:15;4.68;;;3.63;;
55617;SDS011;41492;49.804;9.952;2024-03-22T04:14:41;4.30;;;3.90;;
55617;SDS011;41492;49.804;9.952;2024-03-22T04:17:07;5.05;;;4.03;;
55617;SDS011;41492;49.804;9.952;2024-03-22T04:19:33;6.25;;;3.72;;
55617;SDS011;41492;49.804;9.952;2024-03-22T04:21:59;6.03;;;3.70;;
55617;SDS011;41492;49.804;9.952;2024-03-22T04:24:27;4.13;;;3.70;;
55617;SDS011;41492;49.804;9.952;2024-03-22T04:26:52;6.53;;;3.83;;
55617;SDS011;41492;49.804;9.952;2024-03-22T04:29:19;4.15;;;3.72;;
55617;SDS011;41492;49.804;9.952;2024-03-22T04:31:45;4.22;;;3.83;;
55617;SDS011;41492;49.804;9.952;2024-03-22T04:34:11;4.43;;;3.63;;
55617;SDS011;41492;49.804;9.952;2024-03-22T04:36:37;5.07;;;3.67;;
55617;SDS011;41492;49.804;9.952;2024-03-22T04:39:03;3.72;;;3.42;;
55617;SDS011;41492;49.804;9.952;2024-03-22T04:41:31;3.75;;;3.35;;
55617;SDS011;41492;49.804;9.952;2024-03-22T04:43:58;4.53;;;3.80;;
55617;SDS011;41492;49.804;9.952;2024-03-22T04:46:24;4.10;;;3.80;;
55617;SDS011;41492;49.804;9.952;2024-03-22T04:48:50;4.97;;;3.40;;
55617;SDS011;41492;49.804;9.952;2024-03-22T04:51:16;4.35;;;3.92;;
55617;SDS011;41492;49.804;9.952;2024-03-22T04:53:42;4.85;;;3.72;;
55617;SDS011;41492;49.804;9.952;2024-03-22T04:56:09;4.25;;;3.80;;
55617;SDS011;41492;49.804;9.952;2024-03-22T04:58:36;4.80;;;3.75;;
55617;SDS011;41492;49.804;9.952;2024-03-22T05:01:02;5.28;;;3.55;;
55617;SDS011;41492;49.804;9.952;2024-03-22T05:03:28;3.85;;;3.38;;
55617;SDS011;41492;49.804;9.952;2024-03-22T05:05:55;3.83;;;3.42;;
55617;SDS011;41492;49.804;9.952;2024-03-22T05:08:22;5.38;;;3.38;;
55617;SDS011;41492;49.804;9.952;2024-03-22T05:10:49;3.53;;;3.22;;
55617;SDS011;41492;49.804;9.952;2024-03-22T05:13:14;4.00;;;3.70;;
55617;SDS011;41492;49.804;9.952;2024-03-22T05:15:42;6.35;;;3.53;;
55617;SDS011;41492;49.804;9.952;2024-03-22T05:18:08;4.47;;;3.80;;
55617;SDS011;41492;49.804;9.952;2024-03-22T05:20:34;3.60;;;3.30;;
55617;SDS011;41492;49.804;9.952;2024-03-22T05:23:00;4.07;;;3.67;;
55617;SDS011;41492;49.804;9.952;2024-03-22T05:25:27;5.20;;;3.22;;
55617;SDS011;41492;49.804;9.952;2024-03-22T05:27:52;5.20;;;4.07;;
55617;SDS011;41492;49.804;9.952;2024-03-22T05:30:19;4.88;;;3.67;;
55617;SDS011;41492;49.804;9.952;2024-03-22T05:32:46;3.72;;;3.33;;
55617;SDS011;41492;49.804;9.952;2024-03-22T05:35:14;4.25;;;3.33;;
55617;SDS011;41492;49.804;9.952;2024-03-22T05:37:40;3.97;;;3.55;;
55617;SDS011;41492;49.804;9.952;2024-03-22T05:40:07;6.35;;;4.00;;
55617;SDS011;41492;49.804;9.952;2024-03-22T05:42:33;5.13;;;3.83;;
55617;SDS011;41492;49.804;9.952;2024-03-22T05:45:00;4.40;;;3.60;;
55617;SDS011;41492;49.804;9.952;2024-03-22T05:47:26;4.32;;;3.78;;
55617;SDS011;41492;49.804;9.952;2024-03-22T05:49:53;3.63;;;3.33;;
55617;SDS011;41492;49.804;9.952;2024-03-22T05:52:19;3.60;;;3.30;;
55617;SDS011;41492;49.804;9.952;2024-03-22T05:54:46;4.25;;;3.30;;
55617;SDS011;41492;49.804;9.952;2024-03-22T05:57:11;4.35;;;3.70;;
55617;SDS011;41492;49.804;9.952;2024-03-22T05:59:38;3.75;;;3.13;;
55617;SDS011;41492;49.804;9.952;2024-03-22T06:02:04;4.15;;;3.75;;
55617;SDS011;41492;49.804;9.952;2024-03-22T06:04:31;3.42;;;3.20;;
55617;SDS011;41492;49.804;9.952;2024-03-22T06:06:58;4.50;;;3.58;;
55617;SDS011;41492;49.804;9.952;2024-03-22T06:09:25;4.07;;;3.67;;
55617;SDS011;41492;49.804;9.952;2024-03-22T06:11:59;4.57;;;3.35;;
55617;SDS011;41492;49.804;9.952;2024-03-22T06:14:27;4.22;;;3.83;;
55617;SDS011;41492;49.804;9.952;2024-03-22T06:16:53;4.15;;;3.30;;
55617;SDS011;41492;49.804;9.952;2024-03-22T06:19:19;3.75;;;3.35;;
55617;SDS011;41492;49.804;9.952;2024-03-22T06:21:45;3.78;;;3.15;;
55617;SDS011;41492;49.804;9.952;2024-03-22T06:24:13;4.10;;;3.47;;
55617;SDS011;41492;49.804;9.952;2024-03-22T06:26:38;4.05;;;3.65;;
55617;SDS011;41492;49.804;9.952;2024-03-22T06:29:05;4.53;;;3.70;;
55617;SDS011;41492;49.804;9.952;2024-03-22T06:31:31;4.25;;;3.45;;
55617;SDS011;41492;49.804;9.952;2024-03-22T06:33:57;4.57;;;3.60;;
55617;SDS011;41492;49.804;9.952;2024-03-22T06:36:27;3.90;;;3.33;;
55617;SDS011;41492;49.804;9.952;2024-03-22T06:38:54;4.80;;;4.00;;
55617;SDS011;41492;49.804;9.952;2024-03-22T06:41:21;3.20;;;2.90;;
55617;SDS011;41492;49.804;9.952;2024-03-22T06:43:48;3.95;;;3.55;;
55617;SDS011;41492;49.804;9.952;2024-03-22T06:46:13;3.60;;;3.25;;
55617;SDS011;41492;49.804;9.952;2024-03-22T06:48:40;3.45;;;3.15;;
55617;SDS011;41492;49.804;9.952;2024-03-22T06:51:06;4.65;;;3.70;;
55617;SDS011;41492;49.804;9.952;2024-03-22T06:53:33;6.45;;;3.88;;
55617;SDS011;41492;49.804;9.952;2024-03-22T06:55:58;6.22;;;3.53;;
55617;SDS011;41492;49.804;9.952;2024-03-22T06:58:26;4.55;;;4.10;;
55617;SDS011;41492;49.804;9.952;2024-03-22T07:00:52;5.38;;;3.60;;
55617;SDS011;41492;49.804;9.952;2024-03-22T07:03:18;3.90;;;3.47;;
55617;SDS011;41492;49.804;9.952;2024-03-22T07:05:44;6.95;;;4.07;;
55617;SDS011;41492;49.804;9.952;2024-03-22T07:08:13;6.30;;;3.75;;
55617;SDS011;41492;49.804;9.952;2024-03-22T07:10:38;4.13;;;3.72;;
55617;SDS011;41492;49.804;9.952;2024-03-22T07:13:05;8.05;;;3.80;;
55617;SDS011;41492;49.804;9.952;2024-03-22T07:15:32;5.57;;;4.07;;
55617;SDS011;41492;49.804;9.952;2024-03-22T07:17:59;4.40;;;3.95;;
55617;SDS011;41492;49.804;9.952;2024-03-22T07:20:25;7.78;;;3.65;;
55617;SDS011;41492;49.804;9.952;2024-03-22T07:22:51;4.50;;;3.63;;
55617;SDS011;41492;49.804;9.952;2024-03-22T07:25:18;4.78;;;3.42;;
55617;SDS011;41492;49.804;9.952;2024-03-22T07:27:44;6.53;;;3.88;;
55617;SDS011;41492;49.804;9.952;2024-03-22T07:30:11;5.43;;;3.90;;
55617;SDS011;41492;49.804;9.952;2024-03-22T07:32:39;5.05;;;3.83;;
55617;SDS011;41492;49.804;9.952;2024-03-22T07:35:05;5.22;;;4.25;;
55617;SDS011;41492;49.804;9.952;2024-03-22T07:37:32;4.85;;;3.40;;
55617;SDS011;41492;49.804;9.952;2024-03-22T07:39:57;4.22;;;3.88;;
55617;SDS011;41492;49.804;9.952;2024-03-22T07:42:24;5.85;;;3.45;;
55617;SDS011;41492;49.804;9.952;2024-03-22T07:44:49;4.60;;;4.20;;
55617;SDS011;41492;49.804;9.952;2024-03-22T07:47:16;5.03;;;4.20;;
55617;SDS011;41492;49.804;9.952;2024-03-22T07:49:43;5.30;;;3.65;;
55617;SDS011;41492;49.804;9.952;2024-03-22T07:52:10;5.88;;;3.72;;
55617;SDS011;41492;49.804;9.952;2024-03-22T07:54:35;6.25;;;4.20;;
55617;SDS011;41492;49.804;9.952;2024-03-22T07:57:02;3.97;;;3.58;;
55617;SDS011;41492;49.804;9.952;2024-03-22T07:59:28;4.45;;;3.60;;
55617;SDS011;41492;49.804;9.952;2024-03-22T08:01:55;3.50;;;3.20;;
55617;SDS011;41492;49.804;9.952;2024-03-22T08:04:22;4.35;;;3.60;;
55617;SDS011;41492;49.804;9.952;2024-03-22T08:06:51;4.72;;;3.88;;
55617;SDS011;41492;49.804;9.952;2024-03-22T08:09:17;5.32;;;3.95;;
55617;SDS011;41492;49.804;9.952;2024-03-22T08:11:45;4.95;;;3.42;;
55617;SDS011;41492;49.804;9.952;2024-03-22T08:14:10;4.85;;;3.47;;
55617;SDS011;41492;49.804;9.952;2024-03-22T08:16:37;3.90;;;3.28;;
55617;SDS011;41492;49.804;9.952;2024-03-22T08:19:02;5.18;;;3.75;;
55617;SDS011;41492;49.804;9.952;2024-03-22T08:21:29;3.72;;;3.35;;
55617;SDS011;41492;49.804;9.952;2024-03-22T08:23:56;3.42;;;3.13;;
55617;SDS011;41492;49.804;9.952;2024-03-22T08:26:22;4.05;;;3.42;;
55617;SDS011;41492;49.804;9.952;2024-03-22T08:28:48;4.35;;;3.38;;
55617;SDS011;41492;49.804;9.952;2024-03-22T08:31:15;6.97;;;3.80;;
55617;SDS011;41492;49.804;9.952;2024-03-22T08:33:42;3.42;;;3.13;;
55617;SDS011;41492;49.804;9.952;2024-03-22T08:36:08;4.30;;;3.33;;
55617;SDS011;41492;49.804;9.952;2024-03-22T08:38:34;4.82;;;3.58;;
55617;SDS011;41492;49.804;9.952;2024-03-22T08:41:02;4.85;;;3.10;;
55617;SDS011;41492;49.804;9.952;2024-03-22T08:43:28;4.07;;;3.22;;
55617;SDS011;41492;49.804;9.952;2024-03-22T08:45:55;4.38;;;3.60;;
55617;SDS011;41492;49.804;9.952;2024-03-22T08:48:20;3.85;;;3.13;;
55617;SDS011;41492;49.804;9.952;2024-03-22T08:50:47;6.85;;;3.40;;
55617;SDS011;41492;49.804;9.952;2024-03-22T08:53:13;4.22;;;3.25;;
55617;SDS011;41492;49.804;9.952;2024-03-22T08:55:44;4.57;;;3.30;;
55617;SDS011;41492;49.804;9.952;2024-03-22T08:58:13;3.53;;;3.10;;
55617;SDS011;41492;49.804;9.952;2024-03-22T09:00:38;3.45;;;3.15;;
55617;SDS011;41492;49.804;9.952;2024-03-22T09:03:05;3.55;;;3.25;;
55617;SDS011;41492;49.804;9.952;2024-03-22T09:05:30;4.10;;;3.75;;
55617;SDS011;41492;49.804;9.952;2024-03-22T09:07:58;6.22;;;3.50;;
55617;SDS011;41492;49.804;9.952;2024-03-22T09:10:24;3.67;;;3.05;;
55617;SDS011;41492;49.804;9.952;2024-03-22T09:12:51;3.92;;;2.92;;
55617;SDS011;41492;49.804;9.952;2024-03-22T09:15:18;3.63;;;3.30;;
55617;SDS011;41492;49.804;9.952;2024-03-22T09:17:46;3.97;;;3.63;;
55617;SDS011;41492;49.804;9.952;2024-03-22T09:20:12;3.15;;;2.92;;
55617;SDS011;41492;49.804;9.952;2024-03-22T09:22:38;4.55;;;4.07;;
55617;SDS011;41492;49.804;9.952;2024-03-22T09:25:04;4.55;;;3.17;;
55617;SDS011;41492;49.804;9.952;2024-03-22T09:27:31;3.72;;;3.38;;
55617;SDS011;41492;49.804;9.952;2024-03-22T09:29:57;4.43;;;3.28;;
55617;SDS011;41492;49.804;9.952;2024-03-22T09:32:27;3.33;;;2.85;;
55617;SDS011;41492;49.804;9.952;2024-03-22T09:34:53;5.00;;;3.40;;
55617;SDS011;41492;49.804;9.952;2024-03-22T09:37:19;15.43;;;3.92;;
55617;SDS011;41492;49.804;9.952;2024-03-22T09:39:45;3.58;;;3.22;;
55617;SDS011;41492;49.804;9.952;2024-03-22T09:42:12;5.50;;;3.17;;
55617;SDS011;41492;49.804;9.952;2024-03-22T09:44:42;5.47;;;3.00;;
55617;SDS011;41492;49.804;9.952;2024-03-22T09:47:11;3.58;;;2.90;;
55617;SDS011;41492;49.804;9.952;2024-03-22T09:49:40;4.03;;;2.75;;
55617;SDS011;41492;49.804;9.952;2024-03-22T09:52:11;4.28;;;2.83;;
55617;SDS011;41492;49.804;9.952;2024-03-22T09:54:37;3.92;;;3.00;;
55617;SDS011;41492;49.804;9.952;2024-03-22T09:57:04;5.78;;;2.63;;
55617;SDS011;41492;49.804;9.952;2024-03-22T09:59:32;3.55;;;2.92;;
55617;SDS011;41492;49.804;9.952;2024-03-22T10:01:58;2.63;;;2.42;;
55617;SDS011;41492;49.804;9.952;2024-03-22T10:04:25;2.55;;;2.35;;
55617;SDS011;41492;49.804;9.952;2024-03-22T10:06:53;3.17;;;2.60;;
55617;SDS011;41492;49.804;9.952;2024-03-22T10:09:18;3.28;;;2.40;;
55617;SDS011;41492;49.804;9.952;2024-03-22T10:11:45;3.80;;;2.83;;
55617;SDS011;41492;49.804;9.952;2024-03-22T10:14:10;4.43;;;2.13;;
55617;SDS011;41492;49.804;9.952;2024-03-22T10:16:37;3.05;;;2.65;;
55617;SDS011;41492;49.804;9.952;2024-03-22T10:19:03;2.83;;;2.50;;
55617;SDS011;41492;49.804;9.952;2024-03-22T10:21:30;2.90;;;2.47;;
55617;SDS011;41492;49.804;9.952;2024-03-22T10:23:58;2.38;;;2.17;;
55617;SDS011;41492;49.804;9.952;2024-03-22T10:26:24;4.82;;;2.88;;
55617;SDS011;41492;49.804;9.952;2024-03-22T10:28:50;5.47;;;2.78;;
55617;SDS011;41492;49.804;9.952;2024-03-22T10:31:17;2.20;;;2.00;;
55617;SDS011;41492;49.804;9.952;2024-03-22T10:33:45;3.38;;;2.65;;
55617;SDS011;41492;49.804;9.952;2024-03-22T10:36:12;4.97;;;2.50;;
55617;SDS011;41492;49.804;9.952;2024-03-22T10:38:38;3.00;;;2.67;;
55617;SDS011;41492;49.804;9.952;2024-03-22T10:41:07;2.90;;;2.60;;
55617;SDS011;41492;49.804;9.952;2024-03-22T10:43:32;2.55;;;2.35;;
55617;SDS011;41492;49.804;9.952;2024-03-22T10:46:00;2.70;;;2.20;;
55617;SDS011;41492;49.804;9.952;2024-03-22T10:48:29;2.63;;;2.42;;
55617;SDS011;41492;49.804;9.952;2024-03-22T10:50:58;2.15;;;2.03;;
55617;SDS011;41492;49.804;9.952;2024-03-22T10:53:25;3.17;;;2.30;;
55617;SDS011;41492;49.804;9.952;2024-03-22T10:55:52;3.00;;;2.42;;
55617;SDS011;41492;49.804;9.952;2024-03-22T10:58:21;2.35;;;2.08;;
55617;SDS011;41492;49.804;9.952;2024-03-22T11:00:50;2.20;;;2.00;;
55617;SDS011;41492;49.804;9.952;2024-03-22T11:03:19;2.25;;;2.05;;
55617;SDS011;41492;49.804;9.952;2024-03-22T11:05:46;2.13;;;1.92;;
55617;SDS011;41492;49.804;9.952;2024-03-22T11:08:11;2.58;;;2.38;;
55617;SDS011;41492;49.804;9.952;2024-03-22T11:10:38;2.85;;;2.17;;
55617;SDS011;41492;49.804;9.952;2024-03-22T11:13:04;2.78;;;2.05;;
55617;SDS011;41492;49.804;9.952;2024-03-22T11:15:33;2.08;;;1.85;;
55617;SDS011;41492;49.804;9.952;2024-03-22T11:17:59;2.33;;;2.03;;
55617;SDS011;41492;49.804;9.952;2024-03-22T11:20:26;2.13;;;2.00;;
55617;SDS011;41492;49.804;9.952;2024-03-22T11:22:52;2.40;;;2.20;;
55617;SDS011;41492;49.804;9.952;2024-03-22T11:25:18;1.75;;;1.65;;
55617;SDS011;41492;49.804;9.952;2024-03-22T11:27:44;2.22;;;2.03;;
55617;SDS011;41492;49.804;9.952;2024-03-22T11:30:11;3.10;;;2.40;;
55617;SDS011;41492;49.804;9.952;2024-03-22T11:32:39;3.17;;;2.60;;
55617;SDS011;41492;49.804;9.952;2024-03-22T11:35:10;2.67;;;2.03;;
55617;SDS011;41492;49.804;9.952;2024-03-22T11:37:36;2.15;;;1.98;;
55617;SDS011;41492;49.804;9.952;2024-03-22T11:40:03;2.53;;;2.33;;
55617;SDS011;41492;49.804;9.952;2024-03-22T11:42:31;2.03;;;1.83;;
55617;SDS011;41492;49.804;9.952;2024-03-22T11:44:58;2.17;;;1.98;;
55617;SDS011;41492;49.804;9.952;2024-03-22T11:47:24;2.00;;;1.83;;
55617;SDS011;41492;49.804;9.952;2024-03-22T11:49:52;2.00;;;1.80;;
55617;SDS011;41492;49.804;9.952;2024-03-22T11:52:17;2.08;;;1.88;;
55617;SDS011;41492;49.804;9.952;2024-03-22T11:54:49;1.98;;;1.88;;
55617;SDS011;41492;49.804;9.952;2024-03-22T11:57:17;1.77;;;1.67;;
55617;SDS011;41492;49.804;9.952;2024-03-22T11:59:43;2.22;;;2.03;;
55617;SDS011;41492;49.804;9.952;2024-03-22T12:02:09;2.65;;;1.95;;
55617;SDS011;41492;49.804;9.952;2024-03-22T12:04:40;2.25;;;2.03;;
55617;SDS011;41492;49.804;9.952;2024-03-22T12:07:08;1.92;;;1.73;;
55617;SDS011;41492;49.804;9.952;2024-03-22T12:09:36;2.10;;;1.90;;
55617;SDS011;41492;49.804;9.952;2024-03-22T12:12:03;3.08;;;1.83;;
55617;SDS011;41492;49.804;9.952;2024-03-22T12:14:30;2.58;;;2.38;;
55617;SDS011;41492;49.804;9.952;2024-03-22T12:16:56;3.17;;;1.92;;
55617;SDS011;41492;49.804;9.952;2024-03-22T12:19:22;1.92;;;1.80;;
55617;SDS011;41492;49.804;9.952;2024-03-22T12:21:48;1.52;;;1.42;;
55617;SDS011;41492;49.804;9.952;2024-03-22T12:24:16;1.73;;;1.63;;
55617;SDS011;41492;49.804;9.952;2024-03-22T12:26:41;1.70;;;1.38;;
55617;SDS011;41492;49.804;9.952;2024-03-22T12:29:08;1.70;;;1.60;;
55617;SDS011;41492;49.804;9.952;2024-03-22T12:31:35;2.35;;;2.15;;
55617;SDS011;41492;49.804;9.952;2024-03-22T12:34:03;2.35;;;2.05;;
55617;SDS011;41492;49.804;9.952;2024-03-22T12:36:29;1.73;;;1.63;;
55617;SDS011;41492;49.804;9.952;2024-03-22T12:38:55;1.77;;;1.40;;
55617;SDS011;41492;49.804;9.952;2024-03-22T12:41:22;1.80;;;1.55;;
55617;SDS011;41492;49.804;9.952;2024-03-22T12:43:49;2.15;;;1.58;;
55617;SDS011;41492;49.804;9.952;2024-03-22T12:46:14;1.50;;;1.40;;
55617;SDS011;41492;49.804;9.952;2024-03-22T12:48:41;1.50;;;1.40;;
55617;SDS011;41492;49.804;9.952;2024-03-22T12:51:06;1.70;;;1.60;;
55617;SDS011;41492;49.804;9.952;2024-03-22T12:53:33;2.00;;;1.85;;
55617;SDS011;41492;49.804;9.952;2024-03-22T12:55:59;1.73;;;1.58;;
55617;SDS011;41492;49.804;9.952;2024-03-22T12:58:27;1.55;;;1.45;;
55617;SDS011;41492;49.804;9.952;2024-03-22T13:00:52;1.95;;;1.40;;
55617;SDS011;41492;49.804;9.952;2024-03-22T13:03:19;1.80;;;1.65;;
55617;SDS011;41492;49.804;9.952;2024-03-22T13:05:45;1.83;;;1.73;;
55617;SDS011;41492;49.804;9.952;2024-03-22T13:08:11;2.28;;;1.77;;
55617;SDS011;41492;49.804;9.952;2024-03-22T13:10:37;1.58;;;1.48;;
55617;SDS011;41492;49.804;9.952;2024-03-22T13:13:08;1.40;;;1.30;;
55617;SDS011;41492;49.804;9.952;2024-03-22T13:15:35;1.70;;;1.60;;
55617;SDS011;41492;49.804;9.952;2024-03-22T13:18:02;2.47;;;1.63;;
55617;SDS011;41492;49.804;9.952;2024-03-22T13:20:28;1.55;;;1.45;;
55617;SDS011;41492;49.804;9.952;2024-03-22T13:22:55;2.33;;;1.65;;
55617;SDS011;41492;49.804;9.952;2024-03-22T13:25:21;2.45;;;1.85;;
55617;SDS011;41492;49.804;9.952;2024-03-22T13:27:48;1.65;;;1.55;;
55617;SDS011;41492;49.804;9.952;2024-03-22T13:30:14;2.88;;;1.30;;
55617;SDS011;41492;49.804;9.952;2024-03-22T13:32:42;1.40;;;1.27;;
55617;SDS011;41492;49.804;9.952;2024-03-22T13:35:07;1.83;;;1.50;;
55617;SDS011;41492;49.804;9.952;2024-03-22T13:37:34;1.50;;;1.40;;
55617;SDS011;41492;49.804;9.952;2024-03-22T13:40:00;1.67;;;1.58;;
55617;SDS011;41492;49.804;9.952;2024-03-22T13:42:26;1.77;;;1.48;;
55617;SDS011;41492;49.804;9.952;2024-03-22T13:44:52;1.70;;;1.40;;
55617;SDS011;41492;49.804;9.952;2024-03-22T13:47:19;1.70;;;1.60;;
55617;SDS011;41492;49.804;9.952;2024-03-22T13:49:46;1.40;;;1.30;;
55617;SDS011;41492;49.804;9.952;2024-03-22T13:52:13;1.45;;;1.35;;
55617;SDS011;41492;49.804;9.952;2024-03-22T13:54:38;1.75;;;1.65;;
55617;SDS011;41492;49.804;9.952;2024-03-22T13:57:05;1.17;;;1.08;;
55617;SDS011;41492;49.804;9.952;2024-03-22T13:59:31;1.38;;;1.27;;
55617;SDS011;41492;49.804;9.952;2024-03-22T14:01:57;1.10;;;1.10;;
55617;SDS011;41492;49.804;9.952;2024-03-22T14:04:23;1.40;;;1.30;;
55617;SDS011;41492;49.804;9.952;2024-03-22T14:06:52;1.67;;;1.58;;
55617;SDS011;41492;49.804;9.952;2024-03-22T14:09:18;1.75;;;1.48;;
55617;SDS011;41492;49.804;9.952;2024-03-22T14:11:44;1.42;;;1.33;;
55617;SDS011;41492;49.804;9.952;2024-03-22T14:14:13;1.08;;;1.08;;
55617;SDS011;41492;49.804;9.952;2024-03-22T14:16:39;1.70;;;1.33;;
55617;SDS011;41492;49.804;9.952;2024-03-22T14:19:06;1.52;;;1.42;;
55617;SDS011;41492;49.804;9.952;2024-03-22T14:21:32;1.40;;;1.30;;
55617;SDS011;41492;49.804;9.952;2024-03-22T14:24:00;1.60;;;1.50;;
55617;SDS011;41492;49.804;9.952;2024-03-22T14:26:26;1.48;;;1.38;;
55617;SDS011;41492;49.804;9.952;2024-03-22T14:28:52;1.42;;;1.33;;
55617;SDS011;41492;49.804;9.952;2024-03-22T14:31:18;1.85;;;1.45;;
55617;SDS011;41492;49.804;9.952;2024-03-22T14:33:45;1.60;;;1.50;;
55617;SDS011;41492;49.804;9.952;2024-03-22T14:36:11;1.40;;;1.30;;
55617;SDS011;41492;49.804;9.952;2024-03-22T14:38:38;1.63;;;1.52;;
55617;SDS011;41492;49.804;9.952;2024-03-22T14:41:05;1.52;;;1.42;;
55617;SDS011;41492;49.804;9.952;2024-03-22T14:43:32;1.52;;;1.42;;